KCTY/CTY METAR and TAF weather

Enter ICAO airport designator
Station Type Date Time Source
KCTY METAR 2018/09/21 18:50 UTC NOAA

KCTY 211850Z AUTO 08008KT 7SM BKN044 BKN060 BKN120 33/23 A3004 RMK AO2 T03250230


Station Type Date Time Source
KCTY Decoded METAR 2018/09/21 18:50 UTC NOAA

CROSS CITY AIRPORT, FL, United States (KCTY) 29-38N 083-06W 12M
Sep 21, 2018 - 02:50 PM EDT / 2018.09.21 1850 UTC
Wind: from the E (080 degrees) at 9 MPH (8 KT):0
Visibility: 7 mile(s):0
Sky conditions: mostly cloudy
Temperature: 90.5 F (32.5 C)
Heat index: 99.1 F (37.3 C):1
Dew Point: 73.4 F (23.0 C)
Relative Humidity: 57%
Pressure (altimeter): 30.04 in. Hg (1017 hPa)
ob: KCTY 211850Z AUTO 08008KT 7SM BKN044 BKN060 BKN120 33/23 A3004 RMK AO2 T03250230
cycle: 19

Station Type Date Time Source
KCTY TAF UTC NOAA

Error!


Example: see airport list